Time;durP1;ratioP1;P1;durP2;ratioP2;P2;SDS_P1;SDS_P2;PMS_P1;PMS_P2;Temp;Humidity;BMP_temperature;BMP_pressure;BME280_temperature;BME280_humidity;BME280_pressure;Samples;Min_cycle;Max_cycle;Signal;HPM_P1;HPM_P2
2022/12/11 00:01:29;;;;;;;;;;;2.60;99.90;;;;;;5094452;28;20380;-83
2022/12/11 00:03:55;;;;;;;;;;;2.70;99.90;;;;;;5093483;28;19916;-83
2022/12/11 00:06:21;;;;;;;;;;;2.70;99.90;;;;;;5093072;28;19933;-83
2022/12/11 00:08:50;;;;;;;;;;;2.70;99.90;;;;;;5094987;28;20030;-83
2022/12/11 00:11:15;;;;;;;;;;;2.70;99.90;;;;;;5092852;28;19915;-83
2022/12/11 00:13:41;;;;;;;;;;;2.70;99.90;;;;;;5093656;28;20344;-83
2022/12/11 00:16:07;;;;;;;;;;;2.60;99.90;;;;;;5094932;28;19981;-83
2022/12/11 00:18:32;;;;;;;;;;;2.60;99.90;;;;;;5092849;28;19939;-83
2022/12/11 00:21:02;;;;;;;;;;;2.60;99.90;;;;;;5094627;28;19912;-83
2022/12/11 00:23:27;;;;;;;;;;;2.60;99.90;;;;;;5095046;28;19908;-83
2022/12/11 00:25:53;;;;;;;;;;;2.50;99.90;;;;;;5099169;28;20024;-83
2022/12/11 00:28:19;;;;;;;;;;;2.50;99.90;;;;;;5097310;28;20640;-83
2022/12/11 00:30:44;;;;;;;;;;;2.60;99.90;;;;;;5097595;28;19948;-83
2022/12/11 00:33:10;;;;;;;;;;;2.70;99.90;;;;;;5098589;28;20354;-83
2022/12/11 00:35:39;;;;;;;;;;;2.60;99.90;;;;;;5097217;28;20002;-85
2022/12/11 00:38:05;;;;;;;;;;;2.70;99.90;;;;;;5097068;28;20372;-84
2022/12/11 00:40:34;;;;;;;;;;;2.70;99.90;;;;;;5099085;28;19908;-83
2022/12/11 00:42:59;;;;;;;;;;;2.80;99.90;;;;;;5097111;28;20385;-83
2022/12/11 00:45:24;;;;;;;;;;;2.80;99.90;;;;;;5097743;28;19908;-83
2022/12/11 00:47:50;;;;;;;;;;;2.80;99.90;;;;;;5097226;28;19977;-83
2022/12/11 00:50:15;;;;;;;;;;;2.80;99.90;;;;;;5097396;28;19908;-83
2022/12/11 00:52:41;;;;;;;;;;;2.70;99.90;;;;;;5097130;28;19908;-83
2022/12/11 00:55:06;;;;;;;;;;;2.80;99.90;;;;;;5097527;28;19912;-83
2022/12/11 00:57:32;;;;;;;;;;;2.80;99.90;;;;;;5098533;28;19908;-83
2022/12/11 00:59:57;;;;;;;;;;;2.80;99.90;;;;;;5097382;28;19908;-83
2022/12/11 01:02:22;;;;;;;;;;;2.80;99.90;;;;;;5098713;28;19908;-83
2022/12/11 01:04:48;;;;;;;;;;;2.80;99.90;;;;;;5097063;28;19940;-83
2022/12/11 01:07:13;;;;;;;;;;;2.80;99.90;;;;;;5098931;28;19909;-83
2022/12/11 01:12:23;;;;;;;;;;;2.80;99.90;;;;;;5099189;28;19916;-84
2022/12/11 01:14:49;;;;;;;;;;;2.70;99.90;;;;;;5098539;28;19916;-84
2022/12/11 01:17:15;;;;;;;;;;;2.80;99.90;;;;;;5097197;28;19970;-83
2022/12/11 01:19:40;;;;;;;;;;;2.80;99.90;;;;;;5097158;28;19908;-83
2022/12/11 01:22:06;;;;;;;;;;;2.80;99.90;;;;;;5097292;28;19957;-83
2022/12/11 01:24:32;;;;;;;;;;;2.80;99.90;;;;;;5099491;28;19915;-83
2022/12/11 01:26:57;;;;;;;;;;;2.80;99.90;;;;;;5097792;28;19946;-83
2022/12/11 01:29:23;;;;;;;;;;;2.80;99.90;;;;;;5098915;28;19908;-83
2022/12/11 01:31:48;;;;;;;;;;;2.80;99.90;;;;;;5097330;28;20053;-83
2022/12/11 01:34:14;;;;;;;;;;;2.80;99.90;;;;;;5098725;28;19908;-83
2022/12/11 01:36:39;;;;;;;;;;;2.80;99.90;;;;;;5097303;28;19912;-83
2022/12/11 01:39:04;;;;;;;;;;;2.80;99.90;;;;;;5097270;28;19959;-83
2022/12/11 01:41:30;;;;;;;;;;;2.90;99.90;;;;;;5097362;28;20285;-84
2022/12/11 01:43:56;;;;;;;;;;;2.80;99.90;;;;;;5099582;28;19908;-83
2022/12/11 01:46:22;;;;;;;;;;;2.80;99.90;;;;;;5097494;28;19908;-83
2022/12/11 01:48:48;;;;;;;;;;;2.70;99.90;;;;;;5097521;28;20389;-83
2022/12/11 01:51:13;;;;;;;;;;;2.70;99.90;;;;;;5098706;28;19908;-83
2022/12/11 01:53:40;;;;;;;;;;;2.60;99.90;;;;;;5097184;28;19995;-83
2022/12/11 01:56:07;;;;;;;;;;;2.70;99.90;;;;;;5098952;28;19916;-83
2022/12/11 01:58:59;;;;;;;;;;;2.80;99.90;;;;;;5098741;28;19908;-83
2022/12/11 02:01:32;;;;;;;;;;;2.70;99.90;;;;;;5098088;28;19944;-83
2022/12/11 02:03:58;;;;;;;;;;;2.80;99.90;;;;;;5097075;28;19914;-83
2022/12/11 02:06:35;;;;;;;;;;;2.70;99.90;;;;;;5097241;28;20340;-83
2022/12/11 02:09:01;;;;;;;;;;;2.70;99.90;;;;;;5098588;28;19953;-83
2022/12/11 02:11:34;;;;;;;;;;;2.70;99.90;;;;;;5097168;28;19915;-83
2022/12/11 02:14:05;;;;;;;;;;;2.70;99.90;;;;;;5098531;28;19908;-83
2022/12/11 02:16:54;;;;;;;;;;;2.80;99.90;;;;;;5098693;28;19961;-83
2022/12/11 02:19:19;;;;;;;;;;;2.80;99.90;;;;;;5094007;28;19916;-83
2022/12/11 02:21:48;;;;;;;;;;;2.70;99.90;;;;;;5096632;28;20361;-83
2022/12/11 02:24:13;;;;;;;;;;;2.80;99.90;;;;;;5096808;28;20415;-83
2022/12/11 02:26:45;;;;;;;;;;;2.70;99.90;;;;;;5095768;28;19912;-83
2022/12/11 02:29:15;;;;;;;;;;;2.80;99.90;;;;;;5096272;28;19908;-84
2022/12/11 02:31:44;;;;;;;;;;;2.80;99.90;;;;;;5097688;28;20458;-85
2022/12/11 02:34:18;;;;;;;;;;;2.90;99.90;;;;;;5097949;28;20289;-83
2022/12/11 02:36:47;;;;;;;;;;;2.90;99.90;;;;;;5096829;28;20025;-84
2022/12/11 02:39:14;;;;;;;;;;;2.90;99.90;;;;;;5095868;28;19908;-85
2022/12/11 02:41:42;;;;;;;;;;;2.90;99.90;;;;;;5095564;28;19957;-84
2022/12/11 02:44:09;;;;;;;;;;;3.00;99.90;;;;;;5095626;28;19915;-83
2022/12/11 02:46:35;;;;;;;;;;;3.00;99.90;;;;;;5097189;28;19916;-83
2022/12/11 02:49:03;;;;;;;;;;;2.90;99.90;;;;;;5096029;28;19912;-83
2022/12/11 02:51:32;;;;;;;;;;;2.90;99.90;;;;;;5095755;28;19955;-83
2022/12/11 02:53:58;;;;;;;;;;;2.90;99.90;;;;;;5095595;28;19916;-83
2022/12/11 02:56:42;;;;;;;;;;;2.90;99.90;;;;;;5097788;28;20293;-83
2022/12/11 02:59:10;;;;;;;;;;;3.00;99.90;;;;;;5095609;28;20540;-83
2022/12/11 03:01:35;;;;;;;;;;;3.00;99.90;;;;;;5095289;28;19909;-83
2022/12/11 03:04:01;;;;;;;;;;;3.00;99.90;;;;;;5096804;28;19915;-83
2022/12/11 03:06:30;;;;;;;;;;;3.00;99.90;;;;;;5097190;28;19908;-83
2022/12/11 03:08:55;;;;;;;;;;;3.00;99.90;;;;;;5095931;28;19915;-83
2022/12/11 03:11:21;;;;;;;;;;;2.90;99.90;;;;;;5094960;28;19909;-84
2022/12/11 03:13:46;;;;;;;;;;;3.00;99.90;;;;;;5095529;28;20385;-83
2022/12/11 03:16:24;;;;;;;;;;;3.10;99.90;;;;;;5094594;28;20258;-83
2022/12/11 03:18:57;;;;;;;;;;;3.10;99.90;;;;;;5075529;22;20315;-84
2022/12/11 03:21:25;;;;;;;;;;;3.00;99.90;;;;;;5052471;28;19980;-84
2022/12/11 03:24:01;;;;;;;;;;;3.00;99.90;;;;;;5052141;28;19909;-84
2022/12/11 03:26:29;;;;;;;;;;;3.00;99.90;;;;;;5054251;28;20378;-83
2022/12/11 03:28:57;;;;;;;;;;;3.00;99.90;;;;;;5070101;28;19909;-84
2022/12/11 03:31:35;;;;;;;;;;;3.00;99.90;;;;;;5072381;28;20429;-84
2022/12/11 03:34:02;;;;;;;;;;;2.90;99.90;;;;;;5072357;28;19909;-82
2022/12/11 03:36:33;;;;;;;;;;;2.90;99.90;;;;;;5073969;28;20315;-85
2022/12/11 03:39:01;;;;;;;;;;;3.00;99.90;;;;;;5072793;28;19908;-83
2022/12/11 03:41:28;;;;;;;;;;;3.00;99.90;;;;;;5073563;28;20405;-85
2022/12/11 03:43:55;;;;;;;;;;;2.90;99.90;;;;;;5071823;28;19908;-85
2022/12/11 03:46:22;;;;;;;;;;;2.90;99.90;;;;;;5071906;28;19947;-84
2022/12/11 03:48:48;;;;;;;;;;;2.90;99.90;;;;;;5071612;28;19961;-86
2022/12/11 03:51:14;;;;;;;;;;;2.80;99.90;;;;;;5072061;28;19912;-85
2022/12/11 03:53:39;;;;;;;;;;;2.90;99.90;;;;;;5071697;28;19931;-84
2022/12/11 03:56:06;;;;;;;;;;;3.00;99.90;;;;;;5071687;28;19919;-84
2022/12/11 03:58:32;;;;;;;;;;;3.00;99.90;;;;;;5071440;28;19909;-84
2022/12/11 04:00:57;;;;;;;;;;;2.90;99.90;;;;;;5071405;28;20011;-84
2022/12/11 04:03:23;;;;;;;;;;;3.00;99.90;;;;;;5071708;28;20361;-83
2022/12/11 04:05:49;;;;;;;;;;;2.90;99.90;;;;;;5071770;28;19913;-85
2022/12/11 04:08:16;;;;;;;;;;;2.90;99.90;;;;;;5072344;28;19935;-84
2022/12/11 04:10:41;;;;;;;;;;;2.90;99.90;;;;;;5072648;28;19966;-83
2022/12/11 04:13:07;;;;;;;;;;;2.90;99.90;;;;;;5071642;28;20477;-84
2022/12/11 04:15:33;;;;;;;;;;;2.80;99.90;;;;;;5071430;28;20427;-84
2022/12/11 04:26:14;;;;;;;;;;;2.80;99.90;;;;;;5073374;28;19954;-84
2022/12/11 04:28:41;;;;;;;;;;;2.80;99.90;;;;;;5072047;28;19909;-84
2022/12/11 04:31:10;;;;;;;;;;;2.80;99.90;;;;;;5071610;28;20281;-84
2022/12/11 04:33:35;;;;;;;;;;;2.70;99.90;;;;;;5072900;28;19908;-84
2022/12/11 04:36:01;;;;;;;;;;;2.70;99.90;;;;;;5074158;28;19919;-84
2022/12/11 04:38:26;;;;;;;;;;;2.80;99.90;;;;;;5071948;28;19983;-82
2022/12/11 04:41:02;;;;;;;;;;;2.70;99.90;;;;;;5075109;28;20327;-83
2022/12/11 04:43:28;;;;;;;;;;;2.70;99.90;;;;;;5073013;28;19909;-83
2022/12/11 04:46:04;;;;;;;;;;;2.70;99.90;;;;;;5072789;28;20042;-84
2022/12/11 04:48:29;;;;;;;;;;;2.70;99.90;;;;;;5072805;28;19908;-84
2022/12/11 04:50:55;;;;;;;;;;;2.70;99.90;;;;;;5071355;28;19908;-84
2022/12/11 04:53:20;;;;;;;;;;;2.60;99.90;;;;;;5072451;28;19915;-84
2022/12/11 04:55:46;;;;;;;;;;;2.70;99.90;;;;;;5071427;28;20429;-85
2022/12/11 04:58:11;;;;;;;;;;;2.70;99.90;;;;;;5073112;28;19931;-84
2022/12/11 05:00:38;;;;;;;;;;;2.80;99.90;;;;;;5071114;28;19999;-84
2022/12/11 05:03:04;;;;;;;;;;;2.80;99.90;;;;;;5070897;28;19908;-84
2022/12/11 05:05:29;;;;;;;;;;;2.80;99.90;;;;;;5072571;28;19923;-86
2022/12/11 05:07:55;;;;;;;;;;;2.80;99.90;;;;;;5071213;28;19958;-84
2022/12/11 05:10:20;;;;;;;;;;;2.80;99.90;;;;;;5074469;28;20030;-85
2022/12/11 05:12:46;;;;;;;;;;;2.90;99.90;;;;;;5074855;28;19909;-83
2022/12/11 05:15:11;;;;;;;;;;;2.90;99.90;;;;;;5075211;28;19913;-83
2022/12/11 05:17:37;;;;;;;;;;;2.90;99.90;;;;;;5075987;28;19917;-83
2022/12/11 05:20:02;;;;;;;;;;;2.90;99.90;;;;;;5074631;28;19908;-85
2022/12/11 05:22:29;;;;;;;;;;;2.90;99.90;;;;;;5074492;28;19909;-84
2022/12/11 05:24:54;;;;;;;;;;;2.80;99.90;;;;;;5074519;28;19915;-82
2022/12/11 05:27:19;;;;;;;;;;;2.80;99.90;;;;;;5074773;28;19909;-84
2022/12/11 05:29:45;;;;;;;;;;;2.80;99.90;;;;;;5074348;28;19990;-84
2022/12/11 05:32:10;;;;;;;;;;;2.90;99.90;;;;;;5076600;28;19909;-84
2022/12/11 05:34:36;;;;;;;;;;;2.80;99.90;;;;;;5074127;28;19915;-85
2022/12/11 05:37:01;;;;;;;;;;;2.80;99.90;;;;;;5074125;28;19958;-84
2022/12/11 05:39:27;;;;;;;;;;;2.90;99.90;;;;;;5074132;28;19916;-84
2022/12/11 05:41:52;;;;;;;;;;;2.80;99.90;;;;;;5073922;28;19947;-85
2022/12/11 05:44:18;;;;;;;;;;;2.80;99.90;;;;;;5074113;28;20384;-84
2022/12/11 05:46:44;;;;;;;;;;;2.80;99.90;;;;;;5074070;28;19919;-86
2022/12/11 05:49:09;;;;;;;;;;;2.80;99.90;;;;;;5074042;28;19991;-85
2022/12/11 05:51:35;;;;;;;;;;;2.80;99.90;;;;;;5073856;28;20357;-86
2022/12/11 05:54:01;;;;;;;;;;;2.70;99.90;;;;;;5073927;28;19909;-85
2022/12/11 05:56:28;;;;;;;;;;;2.80;99.90;;;;;;5075197;28;19919;-85
2022/12/11 05:58:54;;;;;;;;;;;2.70;99.90;;;;;;5075974;28;19912;-83
2022/12/11 06:01:21;;;;;;;;;;;2.70;99.90;;;;;;5074486;28;20001;-83
2022/12/11 06:03:47;;;;;;;;;;;2.70;99.90;;;;;;5075551;28;20309;-84
2022/12/11 06:06:13;;;;;;;;;;;2.70;99.90;;;;;;5074137;28;19908;-84
2022/12/11 06:08:38;;;;;;;;;;;2.70;99.90;;;;;;5075420;28;19988;-83
2022/12/11 06:11:05;;;;;;;;;;;2.70;99.90;;;;;;5073977;28;20374;-83
2022/12/11 06:13:31;;;;;;;;;;;2.80;99.90;;;;;;5074298;28;19958;-84
2022/12/11 06:16:03;;;;;;;;;;;2.80;99.90;;;;;;5074199;28;19912;-83
2022/12/11 06:18:29;;;;;;;;;;;2.80;99.90;;;;;;5073756;28;19916;-83
2022/12/11 06:20:54;;;;;;;;;;;2.70;99.90;;;;;;5072501;28;19918;-83
2022/12/11 06:23:20;;;;;;;;;;;2.80;99.90;;;;;;5075097;28;19913;-83
2022/12/11 06:25:45;;;;;;;;;;;2.70;99.90;;;;;;5073783;28;19935;-83
2022/12/11 06:28:11;;;;;;;;;;;2.70;99.90;;;;;;5074033;28;19915;-83
2022/12/11 06:30:36;;;;;;;;;;;2.70;99.90;;;;;;5073800;28;19967;-83
2022/12/11 06:33:01;;;;;;;;;;;2.60;99.90;;;;;;5074954;28;19908;-83
2022/12/11 06:35:27;;;;;;;;;;;2.70;99.90;;;;;;5073692;28;19912;-83
2022/12/11 06:37:52;;;;;;;;;;;2.70;99.90;;;;;;5073678;28;19977;-83
2022/12/11 06:40:18;;;;;;;;;;;2.70;99.90;;;;;;5074841;28;19915;-84
2022/12/11 06:42:43;;;;;;;;;;;2.70;99.90;;;;;;5074686;28;19909;-85
2022/12/11 06:45:09;;;;;;;;;;;2.70;99.90;;;;;;5074145;28;19915;-83
2022/12/11 06:47:34;;;;;;;;;;;2.70;99.90;;;;;;5074955;28;19916;-83
2022/12/11 06:50:01;;;;;;;;;;;2.70;99.90;;;;;;5073323;28;19961;-83
2022/12/11 06:52:27;;;;;;;;;;;2.70;99.90;;;;;;5074820;28;19909;-83
2022/12/11 06:54:52;;;;;;;;;;;2.70;99.90;;;;;;5073204;28;20015;-83
2022/12/11 06:57:18;;;;;;;;;;;2.70;99.90;;;;;;5073352;28;20297;-84
2022/12/11 06:59:44;;;;;;;;;;;2.70;99.90;;;;;;5073141;28;19973;-83
2022/12/11 07:02:19;;;;;;;;;;;2.70;99.90;;;;;;5073204;28;19973;-83
2022/12/11 07:04:45;;;;;;;;;;;2.70;99.90;;;;;;5072909;28;19947;-83
2022/12/11 07:07:18;;;;;;;;;;;2.70;99.90;;;;;;5072823;28;19970;-84
2022/12/11 07:09:58;;;;;;;;;;;2.80;99.90;;;;;;5073921;28;19916;-84
2022/12/11 07:12:24;;;;;;;;;;;2.70;99.90;;;;;;5072651;28;19912;-83
2022/12/11 07:14:49;;;;;;;;;;;2.70;99.90;;;;;;5073107;28;20006;-83
2022/12/11 07:17:15;;;;;;;;;;;2.70;99.90;;;;;;5072509;28;19924;-83
2022/12/11 07:19:40;;;;;;;;;;;2.70;99.90;;;;;;5074247;28;19905;-84
2022/12/11 07:22:06;;;;;;;;;;;2.70;99.90;;;;;;5072327;28;20353;-83
2022/12/11 07:24:31;;;;;;;;;;;2.70;99.90;;;;;;5072885;28;19916;-83
2022/12/11 07:26:57;;;;;;;;;;;2.70;99.90;;;;;;5073970;28;20342;-85
2022/12/11 07:29:22;;;;;;;;;;;2.70;99.90;;;;;;5072556;28;19963;-83
2022/12/11 07:31:48;;;;;;;;;;;2.70;99.90;;;;;;5073382;28;19912;-84
2022/12/11 07:34:13;;;;;;;;;;;2.80;99.90;;;;;;5072619;28;19948;-83
2022/12/11 07:36:39;;;;;;;;;;;2.80;99.90;;;;;;5072416;28;19975;-84
2022/12/11 07:39:04;;;;;;;;;;;2.80;99.90;;;;;;5072471;28;19913;-83
2022/12/11 07:41:30;;;;;;;;;;;2.80;99.90;;;;;;5073811;28;19915;-83
2022/12/11 07:43:57;;;;;;;;;;;2.80;99.90;;;;;;5072668;28;19919;-84
2022/12/11 07:46:24;;;;;;;;;;;2.80;99.90;;;;;;5072853;28;19908;-85
2022/12/11 07:48:50;;;;;;;;;;;2.80;99.90;;;;;;5073074;28;19923;-84
2022/12/11 07:51:17;;;;;;;;;;;2.70;99.90;;;;;;5072602;28;19917;-84
2022/12/11 07:53:46;;;;;;;;;;;2.70;99.90;;;;;;5074585;28;19909;-83
2022/12/11 07:56:12;;;;;;;;;;;2.70;99.90;;;;;;5073059;28;19912;-84
2022/12/11 07:58:37;;;;;;;;;;;2.70;99.90;;;;;;5072271;28;19908;-84
2022/12/11 08:01:04;;;;;;;;;;;2.70;99.90;;;;;;5072080;28;19916;-84
2022/12/11 08:03:29;;;;;;;;;;;2.80;99.90;;;;;;5073657;28;20002;-83
2022/12/11 08:05:54;;;;;;;;;;;2.80;99.90;;;;;;5072094;28;20597;-83
2022/12/11 08:08:20;;;;;;;;;;;2.80;99.90;;;;;;5072006;28;20282;-84
2022/12/11 08:10:45;;;;;;;;;;;2.80;99.90;;;;;;5072391;28;20259;-83
2022/12/11 08:13:11;;;;;;;;;;;2.90;99.90;;;;;;5071779;28;19909;-85
2022/12/11 08:15:37;;;;;;;;;;;2.90;99.90;;;;;;5071404;28;19987;-84
2022/12/11 08:18:02;;;;;;;;;;;2.90;99.90;;;;;;5071136;28;19946;-85
2022/12/11 08:20:29;;;;;;;;;;;2.90;99.90;;;;;;5071337;28;20282;-85
2022/12/11 08:22:55;;;;;;;;;;;2.90;99.90;;;;;;5071083;28;19915;-84
2022/12/11 08:25:20;;;;;;;;;;;3.00;99.90;;;;;;5071350;28;20328;-84
2022/12/11 08:27:45;;;;;;;;;;;3.00;99.90;;;;;;5071264;28;19913;-85
2022/12/11 08:30:11;;;;;;;;;;;3.10;99.90;;;;;;5071250;28;19930;-86
2022/12/11 08:32:37;;;;;;;;;;;3.10;99.90;;;;;;5072544;28;19908;-84
2022/12/11 08:35:02;;;;;;;;;;;3.20;99.90;;;;;;5093462;28;19967;-87
2022/12/11 08:37:28;;;;;;;;;;;3.30;99.90;;;;;;5071528;28;19963;-85
2022/12/11 08:39:54;;;;;;;;;;;3.30;99.90;;;;;;5071174;28;19909;-85
2022/12/11 08:42:19;;;;;;;;;;;3.30;99.90;;;;;;5070858;28;19909;-85
2022/12/11 08:44:45;;;;;;;;;;;3.40;99.90;;;;;;5073177;28;19977;-83
2022/12/11 08:47:10;;;;;;;;;;;3.40;99.90;;;;;;5074958;28;19916;-83
2022/12/11 08:49:36;;;;;;;;;;;3.40;99.90;;;;;;5075497;28;20390;-84
2022/12/11 08:52:02;;;;;;;;;;;3.40;99.90;;;;;;5076393;28;19962;-84
2022/12/11 08:54:27;;;;;;;;;;;3.50;99.90;;;;;;5075252;28;19916;-83
2022/12/11 08:56:53;;;;;;;;;;;3.50;99.90;;;;;;5075199;28;19913;-85
2022/12/11 08:59:18;;;;;;;;;;;3.60;99.90;;;;;;5076438;28;19974;-84
2022/12/11 09:01:44;;;;;;;;;;;3.60;99.90;;;;;;5075033;28;20320;-84
2022/12/11 09:04:09;;;;;;;;;;;3.60;99.90;;;;;;5075114;28;19915;-85
2022/12/11 09:06:35;;;;;;;;;;;3.60;99.90;;;;;;5075267;28;20019;-84
2022/12/11 09:09:01;;;;;;;;;;;3.60;99.90;;;;;;5075177;28;19918;-84
2022/12/11 09:11:27;;;;;;;;;;;3.40;99.90;;;;;;5075931;28;19913;-84
2022/12/11 09:13:53;;;;;;;;;;;3.40;99.90;;;;;;5075181;28;19908;-84
2022/12/11 09:16:20;;;;;;;;;;;3.50;99.90;;;;;;5074948;28;19912;-84
2022/12/11 09:18:46;;;;;;;;;;;3.60;99.90;;;;;;5074970;28;19932;-85
2022/12/11 09:21:13;;;;;;;;;;;3.60;99.90;;;;;;5075592;28;19908;-85
2022/12/11 09:23:39;;;;;;;;;;;3.50;99.90;;;;;;5074645;28;20003;-84
2022/12/11 09:26:05;;;;;;;;;;;3.50;99.90;;;;;;5074185;28;19962;-85
2022/12/11 09:28:31;;;;;;;;;;;3.60;99.90;;;;;;5075325;28;19958;-84
2022/12/11 09:30:56;;;;;;;;;;;3.70;99.90;;;;;;5073955;28;19962;-85
2022/12/11 09:33:22;;;;;;;;;;;3.80;99.90;;;;;;5074070;28;20005;-85
2022/12/11 09:35:57;;;;;;;;;;;3.70;99.90;;;;;;5075467;28;19916;-85
2022/12/11 09:38:22;;;;;;;;;;;3.70;99.90;;;;;;5073938;28;19909;-85
2022/12/11 09:40:48;;;;;;;;;;;3.70;99.90;;;;;;5075223;28;19908;-85
2022/12/11 09:43:32;;;;;;;;;;;3.70;99.90;;;;;;5073774;28;19975;-85
2022/12/11 09:45:59;;;;;;;;;;;3.70;99.90;;;;;;5073998;28;19995;-85
2022/12/11 09:48:25;;;;;;;;;;;3.80;99.90;;;;;;5073636;28;19916;-84
2022/12/11 09:50:52;;;;;;;;;;;3.80;99.90;;;;;;5073658;28;19908;-84
2022/12/11 09:53:25;;;;;;;;;;;3.70;99.90;;;;;;5073702;28;19909;-85
2022/12/11 09:56:09;;;;;;;;;;;3.80;99.90;;;;;;5073367;28;20007;-86
2022/12/11 09:58:38;;;;;;;;;;;3.80;99.90;;;;;;5073516;28;19918;-83
2022/12/11 10:01:21;;;;;;;;;;;3.90;99.90;;;;;;5073466;28;19909;-84
2022/12/11 10:03:53;;;;;;;;;;;3.90;99.90;;;;;;5074936;28;19915;-84
2022/12/11 10:06:24;;;;;;;;;;;3.90;99.90;;;;;;5071887;28;19915;-83
2022/12/11 10:08:53;;;;;;;;;;;3.90;99.90;;;;;;5062090;28;19912;-83
2022/12/11 10:11:45;;;;;;;;;;;3.90;99.90;;;;;;5072957;28;19908;-84
2022/12/11 10:14:18;;;;;;;;;;;3.80;99.90;;;;;;5070347;28;19996;-84
2022/12/11 10:16:45;;;;;;;;;;;3.80;99.90;;;;;;5072261;28;19912;-84
2022/12/11 10:19:17;;;;;;;;;;;3.80;99.90;;;;;;5069494;28;19921;-84
2022/12/11 10:21:43;;;;;;;;;;;3.80;99.90;;;;;;5063815;28;19935;-83
2022/12/11 10:24:13;;;;;;;;;;;3.80;99.90;;;;;;5074256;28;19909;-84
2022/12/11 10:26:38;;;;;;;;;;;3.80;99.90;;;;;;5072933;28;20012;-84
2022/12/11 10:29:10;;;;;;;;;;;3.90;99.90;;;;;;5070270;28;20385;-83
2022/12/11 10:31:54;;;;;;;;;;;3.90;99.90;;;;;;5072557;28;19928;-84
2022/12/11 10:34:28;;;;;;;;;;;3.90;99.90;;;;;;5072054;28;20541;-85
2022/12/11 10:36:54;;;;;;;;;;;4.00;99.90;;;;;;5072868;28;19919;-84
2022/12/11 10:39:20;;;;;;;;;;;4.00;99.90;;;;;;5072745;28;19908;-84
2022/12/11 10:41:47;;;;;;;;;;;4.00;99.90;;;;;;5072324;28;20362;-83
2022/12/11 10:44:16;;;;;;;;;;;4.00;99.90;;;;;;5072744;28;19916;-84
2022/12/11 10:46:42;;;;;;;;;;;4.10;99.90;;;;;;5072369;28;19908;-84
2022/12/11 10:49:18;;;;;;;;;;;4.10;99.90;;;;;;5073078;28;19908;-86
2022/12/11 10:51:44;;;;;;;;;;;4.10;99.90;;;;;;5072779;28;19913;-85
2022/12/11 10:54:24;;;;;;;;;;;4.10;99.90;;;;;;5072617;28;19909;-84
2022/12/11 10:56:50;;;;;;;;;;;4.10;99.90;;;;;;5072130;28;19923;-83
2022/12/11 10:59:22;;;;;;;;;;;4.10;99.90;;;;;;5072930;28;19995;-84
2022/12/11 11:01:47;;;;;;;;;;;4.20;99.90;;;;;;5072367;28;19916;-84
2022/12/11 11:04:14;;;;;;;;;;;4.30;99.90;;;;;;5072568;28;19958;-84
2022/12/11 11:06:39;;;;;;;;;;;4.20;99.90;;;;;;5072009;28;20281;-84
2022/12/11 11:09:25;;;;;;;;;;;4.20;99.90;;;;;;5072558;28;19916;-84
2022/12/11 11:11:50;;;;;;;;;;;4.10;99.90;;;;;;5071918;28;19908;-85
2022/12/11 11:14:17;;;;;;;;;;;4.10;99.90;;;;;;5072231;28;19958;-85
2022/12/11 11:16:46;;;;;;;;;;;4.10;99.90;;;;;;5073446;28;19916;-85
2022/12/11 11:19:17;;;;;;;;;;;4.10;99.90;;;;;;5072525;28;19916;-85
2022/12/11 11:21:47;;;;;;;;;;;4.10;99.90;;;;;;5074390;28;19920;-86
2022/12/11 11:24:23;;;;;;;;;;;4.20;99.90;;;;;;5074718;28;19914;-83
2022/12/11 11:26:49;;;;;;;;;;;4.20;99.90;;;;;;5073676;28;20281;-85
2022/12/11 11:29:24;;;;;;;;;;;4.20;99.90;;;;;;5073281;28;19908;-85
2022/12/11 11:31:50;;;;;;;;;;;4.30;99.90;;;;;;5072556;28;19915;-83
2022/12/11 11:34:19;;;;;;;;;;;4.30;99.90;;;;;;5073166;28;19914;-85
2022/12/11 11:36:53;;;;;;;;;;;4.30;99.90;;;;;;5072995;28;20406;-85
2022/12/11 11:39:24;;;;;;;;;;;4.30;99.90;;;;;;5072534;28;19915;-85
2022/12/11 11:41:56;;;;;;;;;;;4.20;99.90;;;;;;5072367;28;19966;-83
2022/12/11 11:44:25;;;;;;;;;;;4.30;99.90;;;;;;5072941;28;20374;-85
2022/12/11 11:46:59;;;;;;;;;;;4.30;99.90;;;;;;5072375;28;20388;-85
2022/12/11 11:49:28;;;;;;;;;;;4.40;99.90;;;;;;5070407;28;20007;-84
2022/12/11 11:51:53;;;;;;;;;;;4.50;99.90;;;;;;5073726;28;20388;-84
2022/12/11 11:54:30;;;;;;;;;;;4.50;99.90;;;;;;5072077;28;19908;-85
2022/12/11 11:56:56;;;;;;;;;;;4.60;99.90;;;;;;5072308;28;19916;-84
2022/12/11 11:59:30;;;;;;;;;;;4.60;99.90;;;;;;5072468;28;19966;-85
2022/12/11 12:01:56;;;;;;;;;;;4.60;99.90;;;;;;5071629;28;20389;-85
2022/12/11 12:04:21;;;;;;;;;;;4.60;99.90;;;;;;5072205;28;19916;-84
2022/12/11 12:06:47;;;;;;;;;;;4.50;99.90;;;;;;5071944;28;19920;-83
2022/12/11 12:09:31;;;;;;;;;;;4.50;99.90;;;;;;5072087;28;19908;-83
2022/12/11 12:12:16;;;;;;;;;;;4.60;99.90;;;;;;5071420;28;20362;-82
2022/12/11 12:14:44;;;;;;;;;;;4.60;99.90;;;;;;5072229;28;19917;-84
2022/12/11 12:17:30;;;;;;;;;;;4.80;99.90;;;;;;5071807;28;19917;-84
2022/12/11 12:19:55;;;;;;;;;;;4.80;99.90;;;;;;5077868;28;19916;-84
2022/12/11 12:22:21;;;;;;;;;;;4.90;99.90;;;;;;5075886;28;19913;-83
2022/12/11 12:24:46;;;;;;;;;;;5.10;99.90;;;;;;5075975;28;19920;-84
2022/12/11 12:27:20;;;;;;;;;;;5.20;99.90;;;;;;5075907;28;19952;-84
2022/12/11 12:30:03;;;;;;;;;;;5.20;99.90;;;;;;5076060;28;20370;-85
2022/12/11 12:32:40;;;;;;;;;;;5.20;99.90;;;;;;5074888;28;19935;-83
2022/12/11 12:35:15;;;;;;;;;;;5.10;99.90;;;;;;5075133;28;19912;-84
2022/12/11 12:38:00;;;;;;;;;;;5.00;99.90;;;;;;5076783;28;19908;-86
2022/12/11 12:40:30;;;;;;;;;;;5.00;99.90;;;;;;5075247;28;20069;-85
2022/12/11 12:43:04;;;;;;;;;;;4.90;99.90;;;;;;5075639;28;19913;-84
2022/12/11 12:45:29;;;;;;;;;;;4.80;99.90;;;;;;5075396;28;20003;-83
2022/12/11 12:47:55;;;;;;;;;;;4.70;99.90;;;;;;5075016;28;20010;-84
2022/12/11 12:50:22;;;;;;;;;;;4.70;99.90;;;;;;5075243;28;19955;-83
2022/12/11 12:52:50;;;;;;;;;;;4.60;99.90;;;;;;5074978;28;19908;-83
2022/12/11 12:55:21;;;;;;;;;;;4.60;99.90;;;;;;5074506;28;19916;-83
2022/12/11 12:57:54;;;;;;;;;;;4.70;99.90;;;;;;5075323;28;19912;-84
2022/12/11 13:00:27;;;;;;;;;;;4.70;99.90;;;;;;5075712;28;19999;-82
2022/12/11 13:02:54;;;;;;;;;;;4.70;99.90;;;;;;5074480;28;19913;-82
2022/12/11 13:05:32;;;;;;;;;;;4.70;99.90;;;;;;5058631;28;19912;-82
2022/12/11 13:08:02;;;;;;;;;;;4.60;99.90;;;;;;5075590;28;19974;-83
2022/12/11 13:10:27;;;;;;;;;;;4.60;99.90;;;;;;5075167;28;19908;-83
2022/12/11 13:12:53;;;;;;;;;;;4.60;99.90;;;;;;5073675;28;20320;-82
2022/12/11 13:15:24;;;;;;;;;;;4.60;99.90;;;;;;5074514;28;19921;-80
2022/12/11 13:17:50;;;;;;;;;;;4.60;99.90;;;;;;5079262;28;19999;-83
2022/12/11 13:20:20;;;;;;;;;;;4.60;99.90;;;;;;5074379;28;19944;-82
2022/12/11 13:22:49;;;;;;;;;;;4.60;99.90;;;;;;5074279;28;19909;-82
2022/12/11 13:25:26;;;;;;;;;;;4.60;99.90;;;;;;5075343;28;20437;-82
2022/12/11 13:27:51;;;;;;;;;;;4.60;99.90;;;;;;5074867;28;19951;-82
2022/12/11 13:30:22;;;;;;;;;;;4.60;99.90;;;;;;5073623;28;20370;-83
2022/12/11 13:32:50;;;;;;;;;;;4.50;99.90;;;;;;5073276;28;20397;-82
2022/12/11 13:35:16;;;;;;;;;;;4.50;99.90;;;;;;5073754;28;19916;-82
2022/12/11 13:37:46;;;;;;;;;;;4.50;99.90;;;;;;5074227;28;19908;-81
2022/12/11 13:40:19;;;;;;;;;;;4.60;99.90;;;;;;5074176;28;19908;-82
2022/12/11 13:42:48;;;;;;;;;;;4.60;99.90;;;;;;5074149;28;19908;-83
2022/12/11 13:45:17;;;;;;;;;;;4.60;99.90;;;;;;5075811;28;19916;-82
2022/12/11 13:47:44;;;;;;;;;;;4.60;99.90;;;;;;5073869;28;19912;-82
2022/12/11 13:50:17;;;;;;;;;;;4.60;99.90;;;;;;5076402;28;19915;-81
2022/12/11 13:52:51;;;;;;;;;;;4.50;99.90;;;;;;5075767;28;19909;-81
2022/12/11 13:55:35;;;;;;;;;;;4.50;99.90;;;;;;5074563;28;20027;-81
2022/12/11 13:58:00;;;;;;;;;;;4.50;99.90;;;;;;5075580;28;19974;-81
2022/12/11 14:00:31;;;;;;;;;;;4.60;99.90;;;;;;5074685;28;20370;-83
2022/12/11 14:02:58;;;;;;;;;;;4.60;99.90;;;;;;5074935;28;19975;-84
2022/12/11 14:05:24;;;;;;;;;;;4.70;99.90;;;;;;5076063;28;19919;-82
2022/12/11 14:07:50;;;;;;;;;;;4.70;99.90;;;;;;5077949;28;19908;-85
2022/12/11 14:10:16;;;;;;;;;;;4.70;99.90;;;;;;5075128;28;19909;-83
2022/12/11 14:12:43;;;;;;;;;;;4.70;99.90;;;;;;5079359;28;19930;-84
2022/12/11 14:15:13;;;;;;;;;;;4.70;99.90;;;;;;5082521;28;19935;-85
2022/12/11 14:17:41;;;;;;;;;;;4.60;99.90;;;;;;5079303;28;20420;-83
2022/12/11 14:20:15;;;;;;;;;;;4.50;99.90;;;;;;5076214;28;19916;-83
2022/12/11 14:22:40;;;;;;;;;;;4.60;99.90;;;;;;5074585;28;19908;-83
2022/12/11 14:25:17;;;;;;;;;;;4.60;99.90;;;;;;5075264;28;19953;-83
2022/12/11 14:28:12;;;;;;;;;;;4.50;99.90;;;;;;5078518;28;19908;-85
2022/12/11 14:30:43;;;;;;;;;;;4.60;99.90;;;;;;5079546;28;19915;-86
2022/12/11 14:33:09;;;;;;;;;;;4.50;99.90;;;;;;5085668;28;19908;-83
2022/12/11 14:35:38;;;;;;;;;;;4.50;99.90;;;;;;5079745;28;19961;-83
2022/12/11 14:38:12;;;;;;;;;;;4.50;99.90;;;;;;5078684;28;20378;-85
2022/12/11 14:40:41;;;;;;;;;;;4.50;99.90;;;;;;5078718;28;20258;-85
2022/12/11 14:43:09;;;;;;;;;;;4.50;99.90;;;;;;5075858;28;19915;-84
2022/12/11 14:45:37;;;;;;;;;;;4.50;99.90;;;;;;5075750;28;19909;-83
2022/12/11 14:48:06;;;;;;;;;;;4.50;99.90;;;;;;5077844;28;19908;-84